In Rescue
 
Open Full Screen Window  High Contrast Mode
Wind Gusting 00 knots
04
July 25, 2021 9:10 AM EDT
Weather Information
Wind Direction
  340 °
Wind Speed
  04 kt (5 mph)
Wind Gust
  00 kt (0 mph)
Altimeter
29.96 in
Visibility
10 SM
Temperature
23° C
73° F
Dewpoint
22° C
72° F
Humidity
94%
1hr Rain Fall
00.00 in.
24hr Rain Fall
00.00 in.
Sky Condition
Overcast @ 1,300 ft
Broken @ 800 ft
IFR

METAR KMRT 251310Z AUTO 34004KT 10SM BKN008 OVC013 23/22 A2996 RMK AO2 T02340215

FAA Disclaimer: The data displayed is for advisory purposes only and is not to be used for flight planning or operations.